Terminal Aerodrome Forecast
Issued by NWS

Home | Current Version | Previous Version | Text Only | Print | Product List | Glossary On
Versions: 1 2 3 4 5 6 7 8 9 10 11 12 13 14 15 16 17 18 19 20 21 22 23 24 25 26 27 28 29 30
000
FTUS44 KOUN 200522
TAFCSM
TAF
KCSM 200522Z 2006/2106 17010KT P6SM SCT040 BKN150
     FM200900 16007KT P6SM BKN025 BKN120
     FM201700 18011KT P6SM SCT040 BKN150
     FM210000 15009KT P6SM SCT050 BKN150=

USA.gov is the U.S. government's official web portal to all federal, state and local government web resources and services.